Time;durP1;ratioP1;P1;durP2;ratioP2;P2;SDS_P1;SDS_P2;PMS_P1;PMS_P2;Temp;Humidity;BMP_temperature;BMP_pressure;BME280_temperature;BME280_humidity;BME280_pressure;Samples;Min_cycle;Max_cycle;Signal;HPM_P1;HPM_P2
2023/04/17 00:01:21;;;;;;;;;;;;;;;18.14;64.10;101564.30;2221264;78;51413;-76
2023/04/17 00:04:23;;;;;;;;;;;;;;;18.15;63.97;101565.47;2245299;78;50496;-76
2023/04/17 00:07:27;;;;;;;;;;;;;;;18.15;63.97;101567.31;2246373;78;50626;-73
2023/04/17 00:10:27;;;;;;;;;;;;;;;18.12;63.98;101564.95;2246542;78;22978;-75
2023/04/17 00:13:29;;;;;;;;;;;;;;;18.12;64.03;101572.98;2245294;78;52551;-75
2023/04/17 00:16:31;;;;;;;;;;;;;;;18.10;64.07;101571.80;2245448;78;51687;-76
2023/04/17 00:19:32;;;;;;;;;;;;;;;18.12;64.14;101576.50;2266722;78;51564;-76
2023/04/17 00:22:34;;;;;;;;;;;;;;;18.14;64.14;101575.02;2245817;78;51463;-75
2023/04/17 00:25:35;;;;;;;;;;;;;;;18.12;64.20;101570.31;2232418;78;51748;-76
2023/04/17 00:28:37;;;;;;;;;;;;;;;18.13;64.11;101568.80;2256968;78;51483;-76
2023/04/17 00:31:39;;;;;;;;;;;;;;;18.15;63.75;101563.30;2266811;78;50791;-76
2023/04/17 00:34:40;;;;;;;;;;;;;;;18.14;63.94;101572.34;2231867;79;50296;-76
2023/04/17 00:37:42;;;;;;;;;;;;;;;18.12;64.05;101568.97;2229853;80;50794;-77
2023/04/17 00:40:47;;;;;;;;;;;;;;;18.12;63.96;101568.97;2204320;80;50433;-77
2023/04/17 00:43:49;;;;;;;;;;;;;;;18.12;64.03;101569.80;2229626;80;50333;-76
2023/04/17 00:46:50;;;;;;;;;;;;;;;18.14;63.99;101573.68;2229863;80;50278;-77
2023/04/17 00:49:52;;;;;;;;;;;;;;;18.13;63.94;101569.30;2233598;79;51234;-77
2023/04/17 00:52:54;;;;;;;;;;;;;;;18.12;64.15;101567.62;2229937;80;49954;-76
2023/04/17 00:55:55;;;;;;;;;;;;;;;18.11;63.84;101571.29;2239107;78;52182;-77
2023/04/17 00:58:57;;;;;;;;;;;;;;;18.10;63.98;101577.66;2238733;79;50267;-77
2023/04/17 01:01:59;;;;;;;;;;;;;;;18.11;64.03;101576.64;2215820;79;52400;-77
2023/04/17 01:05:00;;;;;;;;;;;;;;;18.11;63.95;101571.29;2238198;79;50773;-77
2023/04/17 01:08:02;;;;;;;;;;;;;;;18.09;63.98;101575.48;2215815;79;50642;-77
2023/04/17 01:11:03;;;;;;;;;;;;;;;18.08;63.93;101572.95;2238308;79;51402;-77
2023/04/17 01:14:05;;;;;;;;;;;;;;;18.10;63.87;101572.30;2215474;79;52337;-77
2023/04/17 01:17:09;;;;;;;;;;;;;;;18.12;63.97;101578.34;2238327;79;52388;-76
2023/04/17 01:20:10;;;;;;;;;;;;;;;18.12;63.85;101571.65;2238680;79;22400;-77
2023/04/17 01:23:12;;;;;;;;;;;;;;;18.10;63.86;101565.60;2215874;79;50780;-77
2023/04/17 01:26:18;;;;;;;;;;;;;;;18.15;63.49;101570.83;2221696;79;50982;-76
2023/04/17 01:29:20;;;;;;;;;;;;;;;18.14;63.50;101573.17;2221003;79;51756;-77
2023/04/17 01:32:21;;;;;;;;;;;;;;;18.11;63.62;101572.63;2258839;78;50654;-76
2023/04/17 01:35:23;;;;;;;;;;;;;;;18.12;63.78;101571.65;2239709;78;51792;-77
2023/04/17 01:38:25;;;;;;;;;;;;;;;18.12;63.74;101571.14;2266769;78;50517;-75
2023/04/17 01:41:26;;;;;;;;;;;;;;;18.11;63.75;101573.49;2266751;78;51517;-77
2023/04/17 01:44:28;;;;;;;;;;;;;;;18.11;63.78;101568.61;2243196;78;50456;-77
2023/04/17 01:47:29;;;;;;;;;;;;;;;18.10;63.70;101569.63;2243621;78;50621;-76
2023/04/17 01:50:31;;;;;;;;;;;;;;;18.12;63.63;101574.33;2266747;78;51658;-75
2023/04/17 01:53:33;;;;;;;;;;;;;;;18.10;63.68;101568.28;2218745;78;51678;-77
2023/04/17 01:56:34;;;;;;;;;;;;;;;18.12;63.43;101574.33;2214897;78;50119;-76
2023/04/17 01:59:36;;;;;;;;;;;;;;;18.12;63.40;101571.14;2265696;77;50303;-75
2023/04/17 02:02:37;;;;;;;;;;;;;;;18.11;63.47;101569.95;2265751;77;50670;-77
2023/04/17 02:05:39;;;;;;;;;;;;;;;18.13;63.46;101575.49;2280935;77;52556;-76
2023/04/17 02:08:41;;;;;;;;;;;;;;;18.11;63.28;101570.81;2252787;78;50727;-77
2023/04/17 02:11:42;;;;;;;;;;;;;;;18.11;63.28;101572.63;2288831;76;50327;-77
2023/04/17 02:14:44;;;;;;;;;;;;;;;18.12;63.32;101578.34;2288764;77;50238;-77
2023/04/17 02:17:46;;;;;;;;;;;;;;;18.11;63.42;101586.89;2239854;78;51238;-77
2023/04/17 02:20:47;;;;;;;;;;;;;;;18.10;63.39;101587.86;2264626;78;51567;-77
2023/04/17 02:23:49;;;;;;;;;;;;;;;18.11;63.44;101587.36;2259739;78;50050;-77
2023/04/17 02:26:50;;;;;;;;;;;;;;;18.11;63.36;101591.38;2221646;78;50006;-76
2023/04/17 02:29:52;;;;;;;;;;;;;;;18.12;63.25;101591.73;2264927;78;50378;-77
2023/04/17 02:32:54;;;;;;;;;;;;;;;18.13;63.21;101590.73;2289128;76;50635;-77
2023/04/17 02:35:55;;;;;;;;;;;;;;;18.11;63.30;101591.38;2288773;76;50229;-76
2023/04/17 02:38:57;;;;;;;;;;;;;;;18.11;63.16;101592.72;2219770;79;50648;-76
2023/04/17 02:41:58;;;;;;;;;;;;;;;18.09;63.24;101583.52;2239984;78;50121;-77
2023/04/17 02:45:00;;;;;;;;;;;;;;;18.09;63.33;101592.06;2264457;78;50069;-77
2023/04/17 02:48:02;;;;;;;;;;;;;;;18.09;63.19;101584.86;2289128;77;50268;-76
2023/04/17 02:51:03;;;;;;;;;;;;;;;18.10;63.17;101596.41;2289084;77;52168;-78
2023/04/17 02:54:05;;;;;;;;;;;;;;;18.10;63.12;101591.05;2183956;79;51684;-77
2023/04/17 02:57:07;;;;;;;;;;;;;;;18.10;62.98;101589.70;2260081;77;51563;-77
2023/04/17 03:00:12;;;;;;;;;;;;;;;18.10;63.06;101593.73;2277993;78;51515;-77
2023/04/17 03:03:12;;;;;;;;;;;;;;;18.10;63.04;101596.41;2258863;78;22423;-78
2023/04/17 03:06:13;;;;;;;;;;;;;;;18.08;62.97;101592.53;2277665;78;50320;-77
2023/04/17 03:09:17;;;;;;;;;;;;;;;18.11;63.12;101596.73;2258320;78;50460;-77
2023/04/17 03:12:18;;;;;;;;;;;;;;;18.09;63.19;101600.92;2277741;77;51654;-76
2023/04/17 03:15:20;;;;;;;;;;;;;;;18.09;63.15;101607.63;2277667;77;51388;-76
2023/04/17 03:18:21;;;;;;;;;;;;;;;18.06;63.17;101601.25;2233339;78;51010;-77
2023/04/17 03:21:23;;;;;;;;;;;;;;;18.05;63.05;101609.75;2265142;78;51416;-77
2023/04/17 03:24:25;;;;;;;;;;;;;;;18.08;63.04;101610.45;2252891;78;51483;-75
2023/04/17 03:27:26;;;;;;;;;;;;;;;18.09;63.13;101619.67;2240597;78;51572;-78
2023/04/17 03:30:28;;;;;;;;;;;;;;;18.08;62.92;101623.83;2217755;79;52321;-77
2023/04/17 03:33:30;;;;;;;;;;;;;;;18.09;62.93;101621.02;2217665;79;51187;-76
2023/04/17 03:36:31;;;;;;;;;;;;;;;18.10;62.90;101625.36;2240569;78;51471;-76
2023/04/17 03:39:33;;;;;;;;;;;;;;;18.09;62.85;101628.22;2240673;78;52070;-77
2023/04/17 03:42:34;;;;;;;;;;;;;;;18.10;62.94;101625.87;2217691;79;52307;-77
2023/04/17 03:45:36;;;;;;;;;;;;;;;18.11;62.97;101628.88;2217612;78;50326;-77
2023/04/17 03:48:37;;;;;;;;;;;;;;;18.11;63.08;101631.55;2217704;79;50317;-78
2023/04/17 03:51:41;;;;;;;;;;;;;;;18.09;62.95;101627.70;2264689;78;50643;-78
2023/04/17 03:54:42;;;;;;;;;;;;;;;18.10;63.05;101631.22;2237549;79;23167;-75
2023/04/17 03:57:44;;;;;;;;;;;;;;;18.09;63.00;101634.91;2238096;78;51411;-77
2023/04/17 04:00:47;;;;;;;;;;;;;;;18.13;62.69;101634.42;2241037;78;50638;-78
2023/04/17 04:03:48;;;;;;;;;;;;;;;18.10;62.62;101636.58;2240757;79;50337;-77
2023/04/17 04:06:51;;;;;;;;;;;;;;;18.12;62.31;101643.47;2198146;79;51182;-77
2023/04/17 04:09:53;;;;;;;;;;;;;;;18.12;62.49;101639.95;2222388;79;52319;-78
2023/04/17 04:12:54;;;;;;;;;;;;;;;18.12;62.26;101647.98;2222168;79;51478;-73
2023/04/17 04:15:56;;;;;;;;;;;;;;;18.10;62.67;101647.30;2221816;79;51294;-76
2023/04/17 04:18:58;;;;;;;;;;;;;;;18.06;63.24;101658.33;2221654;79;50860;-77
2023/04/17 04:22:00;;;;;;;;;;;;;;;18.07;62.93;101652.46;2210959;79;50108;-77
2023/04/17 04:25:02;;;;;;;;;;;;;;;18.05;62.78;101659.30;2220111;78;51565;-76
2023/04/17 04:28:04;;;;;;;;;;;;;;;18.05;62.80;101655.28;2202227;80;51545;-77
2023/04/17 04:31:06;;;;;;;;;;;;;;;18.08;62.69;101664.01;2178989;80;51617;-77
2023/04/17 04:34:09;;;;;;;;;;;;;;;18.08;62.62;101662.16;2202551;80;51505;-76
2023/04/17 04:37:15;;;;;;;;;;;;;;;18.05;62.69;101663.82;2202193;80;50458;-75
2023/04/17 04:40:14;;;;;;;;;;;;;;;18.06;63.33;101652.97;2221583;80;22907;-74
2023/04/17 04:43:15;;;;;;;;;;;;;;;18.07;63.35;101664.52;2201710;80;51673;-75
2023/04/17 04:46:17;;;;;;;;;;;;;;;18.06;63.27;101664.18;2201718;80;51427;-73
2023/04/17 04:49:19;;;;;;;;;;;;;;;18.05;62.99;101664.66;2222290;80;50735;-73
2023/04/17 04:52:20;;;;;;;;;;;;;;;18.06;63.41;101668.20;2209115;79;50651;-73
2023/04/17 04:55:22;;;;;;;;;;;;;;;18.06;62.91;101666.86;2197378;79;52482;-73
2023/04/17 04:58:23;;;;;;;;;;;;;;;18.06;62.80;101666.86;2229256;79;50718;-73
2023/04/17 05:01:26;;;;;;;;;;;;;;;18.04;62.67;101671.52;2253763;78;51428;-73
2023/04/17 05:04:28;;;;;;;;;;;;;;;18.02;62.75;101674.34;2253642;78;50311;-71
2023/04/17 05:07:30;;;;;;;;;;;;;;;18.04;63.68;101681.73;2206372;78;51154;-71
2023/04/17 05:10:31;;;;;;;;;;;;;;;18.06;63.48;101678.41;2264751;78;51594;-72
2023/04/17 05:13:33;;;;;;;;;;;;;;;18.05;63.39;101682.06;2261695;78;50320;-71
2023/04/17 05:16:35;;;;;;;;;;;;;;;18.05;63.46;101683.41;2259262;78;50251;-71
2023/04/17 05:19:36;;;;;;;;;;;;;;;18.09;63.73;101686.63;2259853;78;51535;-71
2023/04/17 05:22:38;;;;;;;;;;;;;;;18.11;63.70;101698.05;2254823;78;50301;-72
2023/04/17 05:25:40;;;;;;;;;;;;;;;18.09;64.47;101695.17;2288466;77;51433;-72
2023/04/17 05:28:43;;;;;;;;;;;;;;;18.09;64.51;101696.51;2226643;77;50235;-71
2023/04/17 05:31:44;;;;;;;;;;;;;;;18.06;64.02;101700.34;2222564;80;22297;-71
2023/04/17 05:34:46;;;;;;;;;;;;;;;18.05;64.22;101703.48;2222214;80;51523;-71
2023/04/17 05:37:48;;;;;;;;;;;;;;;18.03;64.10;101710.86;2222328;80;51382;-74
2023/04/17 05:40:49;;;;;;;;;;;;;;;18.04;64.19;101707.17;2202358;80;50691;-71
2023/04/17 05:43:51;;;;;;;;;;;;;;;18.08;64.77;101709.54;2201945;80;50080;-72
2023/04/17 05:46:55;;;;;;;;;;;;;;;18.09;64.96;101705.89;2222223;80;50101;-72
2023/04/17 05:49:58;;;;;;;;;;;;;;;18.06;65.34;101707.87;2202542;80;22492;-72
2023/04/17 05:53:00;;;;;;;;;;;;;;;18.07;65.45;101715.41;2222418;79;52543;-72
2023/04/17 05:56:02;;;;;;;;;;;;;;;18.07;65.36;101718.08;2202824;79;52490;-72
2023/04/17 05:59:04;;;;;;;;;;;;;;;18.06;65.14;101723.94;2222583;79;50369;-72
2023/04/17 06:02:06;;;;;;;;;;;;;;;18.05;64.97;101714.20;2250845;78;51583;-72
2023/04/17 06:05:08;;;;;;;;;;;;;;;18.07;64.80;101720.75;2222138;79;50491;-72
2023/04/17 06:08:10;;;;;;;;;;;;;;;18.06;64.84;101721.26;2250720;78;51234;-72
2023/04/17 06:11:11;;;;;;;;;;;;;;;18.06;64.76;101723.94;2250674;78;50049;-72
2023/04/17 06:14:13;;;;;;;;;;;;;;;18.06;64.71;101725.78;2222141;80;50639;-71
2023/04/17 06:17:15;;;;;;;;;;;;;;;18.05;64.65;101726.25;2251338;78;50188;-72
2023/04/17 06:20:16;;;;;;;;;;;;;;;18.05;64.70;101732.95;2260033;78;52426;-73
2023/04/17 06:23:18;;;;;;;;;;;;;;;18.06;64.66;101738.67;2224572;78;51549;-72
2023/04/17 06:26:20;;;;;;;;;;;;;;;18.03;64.67;101737.64;2205676;79;51506;-73
2023/04/17 06:29:21;;;;;;;;;;;;;;;18.03;64.63;101738.11;2235193;78;50219;-73
2023/04/17 06:32:23;;;;;;;;;;;;;;;18.04;64.71;101743.84;2201860;80;52497;-73
2023/04/17 06:35:24;;;;;;;;;;;;;;;18.03;64.82;101738.98;2221973;80;50316;-73
2023/04/17 06:38:26;;;;;;;;;;;;;;;18.05;64.76;101737.47;2222281;80;50659;-73
2023/04/17 06:41:28;;;;;;;;;;;;;;;18.04;64.64;101747.34;2186141;80;51505;-73
2023/04/17 06:44:29;;;;;;;;;;;;;;;18.05;64.97;101752.20;2201630;80;50710;-72
2023/04/17 06:47:31;;;;;;;;;;;;;;;18.04;65.28;101744.67;2222365;80;51460;-73
2023/04/17 06:50:32;;;;;;;;;;;;;;;18.04;64.73;101752.70;2202170;80;51542;-72
2023/04/17 06:53:34;;;;;;;;;;;;;;;18.03;64.71;101759.06;2202263;80;51565;-73
2023/04/17 06:56:36;;;;;;;;;;;;;;;18.03;64.64;101760.41;2209712;78;51391;-72
2023/04/17 06:59:39;;;;;;;;;;;;;;;18.04;64.74;101770.62;2245146;78;50297;-75
2023/04/17 07:02:40;;;;;;;;;;;;;;;18.08;65.65;101771.14;2290357;77;50494;-73
2023/04/17 07:05:43;;;;;;;;;;;;;;;18.10;65.43;101770.50;2262383;78;51439;-74
2023/04/17 07:08:45;;;;;;;;;;;;;;;18.10;66.17;101770.50;2266239;78;51675;-74
2023/04/17 07:11:48;;;;;;;;;;;;;;;18.11;66.49;101775.72;2266505;78;50429;-75
2023/04/17 07:14:50;;;;;;;;;;;;;;;18.12;66.34;101782.74;2275070;76;50643;-73
2023/04/17 07:17:53;;;;;;;;;;;;;;;18.14;65.59;101781.27;2228407;78;51488;-74
2023/04/17 07:20:55;;;;;;;;;;;;;;;18.12;65.86;101787.27;2215318;78;51118;-74
2023/04/17 07:23:57;;;;;;;;;;;;;;;18.11;65.67;101784.22;2259910;78;50765;-72
2023/04/17 07:27:00;;;;;;;;;;;;;;;18.08;65.56;101786.70;2231897;79;50589;-74
2023/04/17 07:30:02;;;;;;;;;;;;;;;18.09;65.32;101790.25;2240274;78;50309;-73
2023/04/17 07:33:03;;;;;;;;;;;;;;;18.08;65.22;101800.60;2201733;80;52581;-74
2023/04/17 07:36:07;;;;;;;;;;;;;;;18.06;65.14;101800.27;2225872;79;50803;-74
2023/04/17 07:39:08;;;;;;;;;;;;;;;18.05;65.03;101799.91;2226360;80;24258;-73
2023/04/17 07:42:10;;;;;;;;;;;;;;;18.05;65.03;101809.78;2222376;80;50133;-73
2023/04/17 07:45:11;;;;;;;;;;;;;;;18.05;64.93;101807.94;2201725;79;51139;-73
2023/04/17 07:48:13;;;;;;;;;;;;;;;18.11;64.65;101815.02;2226394;80;50013;-74
2023/04/17 07:51:15;;;;;;;;;;;;;;;18.13;64.49;101817.06;2226856;80;50889;-73
2023/04/17 07:54:17;;;;;;;;;;;;;;;18.11;65.23;101819.05;2223060;80;49834;-74
2023/04/17 07:57:20;;;;;;;;;;;;;;;18.13;65.03;101825.09;2207171;80;51713;-73
2023/04/17 08:00:22;;;;;;;;;;;;;;;18.13;65.14;101820.58;2209987;80;25630;-73
2023/04/17 08:03:24;;;;;;;;;;;;;;;18.15;65.31;101820.44;2222696;80;51590;-73
2023/04/17 08:06:26;;;;;;;;;;;;;;;18.13;65.48;101817.90;2202487;80;51572;-73
2023/04/17 08:09:27;;;;;;;;;;;;;;;18.11;65.57;101818.57;2202736;80;51698;-73
2023/04/17 08:12:29;;;;;;;;;;;;;;;18.11;65.58;101828.42;2222805;80;50283;-74
2023/04/17 08:15:31;;;;;;;;;;;;;;;18.10;65.57;101832.94;2222593;80;50303;-74
2023/04/17 08:18:32;;;;;;;;;;;;;;;18.09;65.53;101833.94;2202715;80;51470;-74
2023/04/17 08:21:34;;;;;;;;;;;;;;;18.10;65.45;101838.80;2202687;80;52439;-75
2023/04/17 08:24:36;;;;;;;;;;;;;;;18.08;65.29;101836.77;2222387;80;50449;-76
2023/04/17 08:27:41;;;;;;;;;;;;;;;18.08;65.47;101839.44;2228627;78;50307;-76
2023/04/17 08:30:42;;;;;;;;;;;;;;;18.12;65.00;101841.67;2238914;79;51611;-74
2023/04/17 08:33:44;;;;;;;;;;;;;;;18.14;64.75;101840.20;2238504;79;51601;-74
2023/04/17 08:36:46;;;;;;;;;;;;;;;18.15;64.89;101848.56;2215887;79;51504;-74
2023/04/17 08:39:51;;;;;;;;;;;;;;;18.11;64.92;101845.36;2238621;79;50710;-75
2023/04/17 08:42:52;;;;;;;;;;;;;;;18.17;64.74;101846.58;2238582;79;22459;-75
2023/04/17 08:45:54;;;;;;;;;;;;;;;18.18;64.82;101847.75;2215779;79;51719;-76
2023/04/17 08:48:55;;;;;;;;;;;;;;;18.20;64.70;101850.30;2216529;79;50505;-76
2023/04/17 08:51:57;;;;;;;;;;;;;;;18.20;64.76;101852.97;2239057;79;50627;-75
2023/04/17 08:55:00;;;;;;;;;;;;;;;18.20;64.71;101850.30;2216278;79;51470;-75
2023/04/17 08:58:06;;;;;;;;;;;;;;;18.15;65.06;101859.28;2218084;79;52454;-74
2023/04/17 09:01:09;;;;;;;;;;;;;;;18.14;65.53;101865.64;2221880;79;50434;-74
2023/04/17 09:04:11;;;;;;;;;;;;;;;18.13;65.57;101863.94;2238189;78;50308;-75
2023/04/17 09:07:14;;;;;;;;;;;;;;;18.15;65.55;101859.28;2240838;78;51467;-75
2023/04/17 09:10:15;;;;;;;;;;;;;;;18.15;65.47;101857.44;2229243;78;51084;-76
2023/04/17 09:13:18;;;;;;;;;;;;;;;18.16;65.48;101859.14;2267425;78;50228;-74
2023/04/17 09:16:19;;;;;;;;;;;;;;;18.15;65.50;101856.60;2267038;78;50568;-75
2023/04/17 09:19:21;;;;;;;;;;;;;;;18.15;65.54;101861.45;2267285;78;51548;-74
2023/04/17 09:22:22;;;;;;;;;;;;;;;18.16;65.53;101860.95;2209992;78;52276;-73
2023/04/17 09:25:25;;;;;;;;;;;;;;;18.15;65.51;101864.14;2207556;78;50415;-73
2023/04/17 09:28:28;;;;;;;;;;;;;;;18.17;65.47;101865.34;2230032;80;51616;-74
2023/04/17 09:31:30;;;;;;;;;;;;;;;18.15;65.62;101860.12;2207809;80;22381;-74
2023/04/17 09:34:34;;;;;;;;;;;;;;;18.16;65.50;101871.67;2207385;80;51909;-75
2023/04/17 09:37:37;;;;;;;;;;;;;;;18.17;65.29;101868.02;2206279;79;52676;-74
2023/04/17 09:40:39;;;;;;;;;;;;;;;18.17;65.16;101869.35;2226763;79;51466;-74
2023/04/17 09:43:42;;;;;;;;;;;;;;;18.17;64.96;101866.67;2230184;80;51499;-75
2023/04/17 09:46:48;;;;;;;;;;;;;;;18.15;64.82;101864.14;2207505;79;51755;-77
2023/04/17 09:49:54;;;;;;;;;;;;;;;18.17;64.74;101862.16;2207590;80;22525;-76
2023/04/17 09:52:56;;;;;;;;;;;;;;;18.18;64.76;101862.98;2242700;78;51530;-75
2023/04/17 09:56:00;;;;;;;;;;;;;;;18.17;64.70;101864.00;2230147;80;50453;-75
2023/04/17 09:59:02;;;;;;;;;;;;;;;18.15;64.83;101860.63;2230651;79;22335;-75
2023/04/17 10:02:06;;;;;;;;;;;;;;;18.16;64.64;101863.63;2230513;80;50832;-76
2023/04/17 10:05:08;;;;;;;;;;;;;;;18.16;64.45;101865.84;2208035;80;52613;-73
2023/04/17 10:08:11;;;;;;;;;;;;;;;18.15;64.50;101871.34;2209149;80;51554;-74
2023/04/17 10:11:13;;;;;;;;;;;;;;;18.14;64.37;101871.00;2209071;79;51723;-75
2023/04/17 10:14:28;;;;;;;;;;;;;;;18.14;64.37;101875.02;2231429;80;51443;-74
2023/04/17 10:17:33;;;;;;;;;;;;;;;18.15;64.24;101867.31;2230972;78;50269;-76
2023/04/17 10:20:36;;;;;;;;;;;;;;;18.13;64.25;101869.30;2232438;78;51445;-74
2023/04/17 10:23:38;;;;;;;;;;;;;;;18.15;64.14;101857.94;2263891;77;52678;-75
2023/04/17 10:26:40;;;;;;;;;;;;;;;18.16;64.00;101863.63;2223111;79;50763;-75
2023/04/17 10:29:52;;;;;;;;;;;;;;;18.16;64.07;101862.30;2223372;80;50746;-74
2023/04/17 10:33:04;;;;;;;;;;;;;;;18.16;64.04;101872.53;2223474;80;51629;-74
2023/04/17 10:36:06;;;;;;;;;;;;;;;18.16;63.99;101860.95;2165568;79;52463;-74
2023/04/17 10:39:12;;;;;;;;;;;;;;;18.15;63.99;101860.12;2203364;80;51488;-74
2023/04/17 10:42:15;;;;;;;;;;;;;;;18.12;63.98;101857.75;2222507;80;50677;-74
2023/04/17 10:45:20;;;;;;;;;;;;;;;18.10;63.91;101861.56;2222432;79;51346;-74
2023/04/17 10:48:31;;;;;;;;;;;;;;;18.06;63.72;101857.02;2202467;80;51278;-75
2023/04/17 10:51:36;;;;;;;;;;;;;;;18.09;63.40;101866.59;2242426;78;22985;-75
2023/04/17 10:54:40;;;;;;;;;;;;;;;18.09;63.51;101858.55;2267833;78;50700;-76
2023/04/17 10:57:55;;;;;;;;;;;;;;;18.14;63.21;101858.95;2256146;78;51464;-75
2023/04/17 11:00:58;;;;;;;;;;;;;;;18.29;62.84;101856.09;2238131;78;50864;-76
2023/04/17 11:03:59;;;;;;;;;;;;;;;18.38;62.58;101857.02;2240233;78;51578;-75
2023/04/17 11:07:01;;;;;;;;;;;;;;;18.40;62.49;101855.86;2267300;78;50717;-74
2023/04/17 11:10:05;;;;;;;;;;;;;;;18.46;62.31;101859.27;2267537;78;51352;-74
2023/04/17 11:13:07;;;;;;;;;;;;;;;18.36;62.69;101861.17;2219649;78;52635;-76
2023/04/17 11:16:09;;;;;;;;;;;;;;;18.28;62.98;101870.47;2243646;78;51531;-75
2023/04/17 11:19:15;;;;;;;;;;;;;;;18.26;62.97;101862.60;2267580;78;50678;-76
2023/04/17 11:22:18;;;;;;;;;;;;;;;18.25;62.94;101868.94;2246965;78;51567;-76
2023/04/17 11:25:23;;;;;;;;;;;;;;;18.26;63.01;101865.75;2208021;80;51207;-73
2023/04/17 11:28:25;;;;;;;;;;;;;;;18.23;63.77;101863.38;2209520;80;50621;-75
2023/04/17 11:31:28;;;;;;;;;;;;;;;18.19;63.98;101865.53;2230919;80;50230;-74
2023/04/17 11:34:29;;;;;;;;;;;;;;;18.22;64.51;101860.37;2208772;80;50754;-74
2023/04/17 11:37:31;;;;;;;;;;;;;;;18.19;64.68;101867.37;2208239;80;50279;-74
2023/04/17 11:40:33;;;;;;;;;;;;;;;18.24;64.21;101869.94;2230604;80;50223;-74
2023/04/17 11:43:35;;;;;;;;;;;;;;;18.18;64.19;101865.67;2207782;80;50397;-73
2023/04/17 11:46:37;;;;;;;;;;;;;;;18.15;64.33;101874.84;2230258;80;51362;-73
2023/04/17 11:49:39;;;;;;;;;;;;;;;18.13;64.34;101879.51;2207949;79;51630;-74
2023/04/17 11:52:40;;;;;;;;;;;;;;;18.15;64.33;101880.70;2229526;78;50236;-74
2023/04/17 11:55:42;;;;;;;;;;;;;;;18.12;65.06;101884.53;2230442;80;50428;-75
2023/04/17 11:58:52;;;;;;;;;;;;;;;18.12;65.52;101886.38;2230053;80;50545;-73
2023/04/17 12:01:53;;;;;;;;;;;;;;;18.13;65.13;101885.37;2207527;80;50191;-72
2023/04/17 12:04:56;;;;;;;;;;;;;;;18.16;64.96;101882.38;2207552;80;50685;-74
2023/04/17 12:08:00;;;;;;;;;;;;;;;18.15;65.17;101876.69;2207406;80;50494;-71
2023/04/17 12:11:02;;;;;;;;;;;;;;;18.16;65.29;101885.06;2229965;78;50519;-71
2023/04/17 12:14:10;;;;;;;;;;;;;;;18.16;65.39;101886.41;2207463;80;50108;-72
2023/04/17 12:17:07;;;;;;;;;;;;;;;18.20;65.41;101882.44;2206880;79;22299;-72
2023/04/17 12:20:09;;;;;;;;;;;;;;;18.24;65.35;101888.70;2208074;78;51618;-71
2023/04/17 12:23:10;;;;;;;;;;;;;;;18.17;65.04;101888.11;2219175;79;51516;-72
2023/04/17 12:26:12;;;;;;;;;;;;;;;18.12;64.71;101889.05;2207130;80;52559;-71
2023/04/17 12:29:14;;;;;;;;;;;;;;;18.13;64.81;101892.90;2207552;80;50699;-72
2023/04/17 12:32:16;;;;;;;;;;;;;;;18.12;64.98;101891.23;2230342;80;51540;-73
2023/04/17 12:35:18;;;;;;;;;;;;;;;18.16;64.92;101905.16;2230298;80;51514;-71
2023/04/17 12:38:19;;;;;;;;;;;;;;;18.24;64.67;101894.05;2208698;80;51032;-73
2023/04/17 12:41:21;;;;;;;;;;;;;;;18.26;64.49;101901.92;2208373;80;50650;-72
2023/04/17 12:44:23;;;;;;;;;;;;;;;18.30;64.40;101897.96;2230958;80;50422;-74
2023/04/17 12:47:24;;;;;;;;;;;;;;;18.21;64.93;101905.55;2207945;80;50388;-74
2023/04/17 12:50:26;;;;;;;;;;;;;;;18.25;64.53;101905.61;2203784;78;52250;-74
2023/04/17 12:53:28;;;;;;;;;;;;;;;18.25;64.70;101901.59;2253975;78;51533;-74
2023/04/17 12:56:30;;;;;;;;;;;;;;;18.24;64.84;101906.61;2288995;77;51623;-74
2023/04/17 12:59:32;;;;;;;;;;;;;;;18.21;65.66;101905.55;2288977;77;50623;-74
2023/04/17 13:02:33;;;;;;;;;;;;;;;18.16;66.54;101906.48;2239843;78;52296;-76
2023/04/17 13:05:35;;;;;;;;;;;;;;;18.15;67.29;101906.16;2264426;78;51531;-75
2023/04/17 13:08:37;;;;;;;;;;;;;;;18.14;66.99;101905.83;2289016;77;50777;-76
2023/04/17 13:11:39;;;;;;;;;;;;;;;18.16;67.34;101906.48;2289199;77;50673;-75
2023/04/17 13:14:40;;;;;;;;;;;;;;;18.15;67.49;101914.20;2260461;78;50640;-75
2023/04/17 13:17:42;;;;;;;;;;;;;;;18.15;67.56;101911.52;2264573;78;50549;-75
2023/04/17 13:20:44;;;;;;;;;;;;;;;18.14;67.68;101913.86;2254150;78;52336;-74
2023/04/17 13:23:45;;;;;;;;;;;;;;;18.14;67.99;101917.87;2266834;77;50366;-74
2023/04/17 13:26:47;;;;;;;;;;;;;;;18.14;67.99;101919.22;2191253;79;51934;-75
2023/04/17 13:29:49;;;;;;;;;;;;;;;18.13;67.91;101920.19;2275826;78;51405;-74
2023/04/17 13:32:50;;;;;;;;;;;;;;;18.12;67.44;101923.38;2275852;78;50723;-75
2023/04/17 13:35:52;;;;;;;;;;;;;;;18.11;68.38;101925.72;2275561;78;50474;-74
2023/04/17 13:38:54;;;;;;;;;;;;;;;18.11;68.35;101922.17;2252227;78;52476;-74
2023/04/17 13:41:56;;;;;;;;;;;;;;;18.12;68.30;101919.86;2252377;78;51159;-74
2023/04/17 13:44:58;;;;;;;;;;;;;;;18.13;68.33;101923.70;2252093;78;51522;-74
2023/04/17 13:48:00;;;;;;;;;;;;;;;18.14;68.20;101927.25;2275837;78;51603;-74
2023/04/17 13:51:01;;;;;;;;;;;;;;;18.13;68.10;101922.87;2243493;78;51423;-74
2023/04/17 13:54:03;;;;;;;;;;;;;;;18.13;68.08;101923.70;2264112;78;51545;-77
2023/04/17 13:57:07;;;;;;;;;;;;;;;18.12;68.17;101919.35;2256287;78;50691;-74
2023/04/17 14:00:09;;;;;;;;;;;;;;;18.11;67.89;101922.17;2276567;78;50665;-73
2023/04/17 14:03:11;;;;;;;;;;;;;;;18.09;67.92;101922.84;2227952;78;51832;-74
2023/04/17 14:06:12;;;;;;;;;;;;;;;18.08;67.80;101919.29;2251712;78;51537;-72
2023/04/17 14:09:15;;;;;;;;;;;;;;;18.08;67.72;101913.09;2275718;78;51422;-73
2023/04/17 14:12:19;;;;;;;;;;;;;;;18.10;67.69;101917.81;2275543;78;50363;-73
2023/04/17 14:15:20;;;;;;;;;;;;;;;18.14;67.41;101912.52;2252382;78;22455;-72
2023/04/17 14:18:23;;;;;;;;;;;;;;;18.17;67.02;101920.25;2251898;78;51502;-72
2023/04/17 14:21:26;;;;;;;;;;;;;;;18.23;66.68;101916.46;2246213;78;50301;-73
2023/04/17 14:24:28;;;;;;;;;;;;;;;18.23;66.57;101914.28;2255293;78;51513;-73
2023/04/17 14:27:29;;;;;;;;;;;;;;;18.19;66.87;101911.58;2258122;78;52502;-73
2023/04/17 14:30:31;;;;;;;;;;;;;;;18.21;66.50;101922.95;2257951;78;51495;-72
2023/04/17 14:33:33;;;;;;;;;;;;;;;18.15;66.88;101909.67;2277824;77;51384;-72
2023/04/17 14:36:34;;;;;;;;;;;;;;;18.18;66.98;101916.06;2257569;78;51503;-74
2023/04/17 14:39:36;;;;;;;;;;;;;;;18.16;67.10;101923.44;2277693;77;50204;-72
2023/04/17 14:42:37;;;;;;;;;;;;;;;18.19;67.31;101923.12;2233470;78;50987;-73
2023/04/17 14:45:39;;;;;;;;;;;;;;;18.19;67.24;101918.27;2257819;78;50666;-73
2023/04/17 14:48:41;;;;;;;;;;;;;;;18.13;67.12;101917.52;2257837;78;50532;-73
2023/04/17 14:51:42;;;;;;;;;;;;;;;18.16;67.35;101918.55;2273639;77;51519;-73
2023/04/17 14:54:44;;;;;;;;;;;;;;;18.18;67.25;101921.42;2223780;79;51138;-72
2023/04/17 14:57:45;;;;;;;;;;;;;;;18.19;67.55;101923.12;2222265;80;50503;-73
2023/04/17 15:00:47;;;;;;;;;;;;;;;18.24;67.33;101924.86;2222223;80;50665;-73
2023/04/17 15:03:49;;;;;;;;;;;;;;;18.23;67.67;101925.84;2222166;80;50629;-73
2023/04/17 15:06:51;;;;;;;;;;;;;;;18.22;67.65;101927.34;2201813;80;51260;-74
2023/04/17 15:09:52;;;;;;;;;;;;;;;18.23;67.69;101925.00;2222267;80;50282;-72
2023/04/17 15:12:59;;;;;;;;;;;;;;;18.22;67.87;101920.65;2222242;80;50361;-76
2023/04/17 15:15:57;;;;;;;;;;;;;;;18.22;67.29;101917.97;2221895;80;22498;-76
2023/04/17 15:18:59;;;;;;;;;;;;;;;18.30;67.35;101926.09;2222322;80;51484;-77
2023/04/17 15:22:00;;;;;;;;;;;;;;;18.31;67.26;101924.25;2247652;78;52126;-73
2023/04/17 15:25:02;;;;;;;;;;;;;;;18.32;67.28;101920.09;2246605;77;50658;-74
2023/04/17 15:28:03;;;;;;;;;;;;;;;18.27;67.62;101925.06;2221531;79;50323;-73
2023/04/17 15:31:05;;;;;;;;;;;;;;;18.27;67.53;101925.90;2201899;80;52269;-72
2023/04/17 15:34:07;;;;;;;;;;;;;;;18.25;67.71;101923.02;2201877;80;50729;-72